sensor_id;sensor_type;location;lat;lon;timestamp;pressure;altitude;pressure_sealevel;temperature;humidity
19208;BME280;9737;59.466;18.036;2022-07-06T00:01:18;100700.09;;;14.14;55.98
19208;BME280;9737;59.466;18.036;2022-07-06T00:03:46;100680.41;;;14.15;56.07
19208;BME280;9737;59.466;18.036;2022-07-06T00:06:20;100648.38;;;14.04;56.04
19208;BME280;9737;59.466;18.036;2022-07-06T00:08:49;100664.75;;;14.11;56.24
19208;BME280;9737;59.466;18.036;2022-07-06T00:11:18;100656.97;;;14.08;56.13
19208;BME280;9737;59.466;18.036;2022-07-06T00:13:46;100659.38;;;14.11;56.21
19208;BME280;9737;59.466;18.036;2022-07-06T00:16:14;100672.63;;;14.12;56.34
19208;BME280;9737;59.466;18.036;2022-07-06T00:18:43;100680.66;;;14.12;56.10
19208;BME280;9737;59.466;18.036;2022-07-06T00:21:11;100701.69;;;14.17;56.35
19208;BME280;9737;59.466;18.036;2022-07-06T00:23:39;100691.09;;;14.15;56.35
19208;BME280;9737;59.466;18.036;2022-07-06T00:26:08;100694.63;;;14.16;56.13
19208;BME280;9737;59.466;18.036;2022-07-06T00:28:37;100699.75;;;14.19;56.37
19208;BME280;9737;59.466;18.036;2022-07-06T00:31:07;100712.13;;;14.20;56.29
19208;BME280;9737;59.466;18.036;2022-07-06T00:33:35;100693.78;;;14.15;56.43
19208;BME280;9737;59.466;18.036;2022-07-06T00:36:06;100696.34;;;14.17;56.35
19208;BME280;9737;59.466;18.036;2022-07-06T00:38:34;100644.72;;;14.05;56.56
19208;BME280;9737;59.466;18.036;2022-07-06T00:41:02;100646.81;;;14.02;56.53
19208;BME280;9737;59.466;18.036;2022-07-06T00:43:50;100627.50;;;13.98;56.63
19208;BME280;9737;59.466;18.036;2022-07-06T00:46:18;100631.03;;;13.99;56.79
19208;BME280;9737;59.466;18.036;2022-07-06T00:48:46;100675.44;;;14.11;57.01
19208;BME280;9737;59.466;18.036;2022-07-06T00:51:15;100700.81;;;14.16;56.60
19208;BME280;9737;59.466;18.036;2022-07-06T00:53:44;100699.03;;;14.17;56.86
19208;BME280;9737;59.466;18.036;2022-07-06T00:56:14;100699.97;;;14.16;56.96
19208;BME280;9737;59.466;18.036;2022-07-06T00:58:42;100692.91;;;14.15;57.07
19208;BME280;9737;59.466;18.036;2022-07-06T01:01:14;100728.91;;;14.22;56.92
19208;BME280;9737;59.466;18.036;2022-07-06T01:03:42;100726.94;;;14.24;56.91
19208;BME280;9737;59.466;18.036;2022-07-06T01:06:10;100706.06;;;14.18;57.38
19208;BME280;9737;59.466;18.036;2022-07-06T01:08:38;100729.88;;;14.21;57.11
19208;BME280;9737;59.466;18.036;2022-07-06T01:11:06;100689.53;;;14.13;57.12
19208;BME280;9737;59.466;18.036;2022-07-06T01:13:35;100714.09;;;14.18;57.55
19208;BME280;9737;59.466;18.036;2022-07-06T01:16:03;100710.94;;;14.13;57.54
19208;BME280;9737;59.466;18.036;2022-07-06T01:18:33;100708.97;;;14.15;57.35
19208;BME280;9737;59.466;18.036;2022-07-06T01:21:08;100687.13;;;14.10;57.71
19208;BME280;9737;59.466;18.036;2022-07-06T01:23:40;100678.50;;;14.06;57.44
19208;BME280;9737;59.466;18.036;2022-07-06T01:26:10;100667.22;;;14.03;57.68
19208;BME280;9737;59.466;18.036;2022-07-06T01:28:39;100667.94;;;14.05;57.60
19208;BME280;9737;59.466;18.036;2022-07-06T01:31:14;100664.41;;;14.04;57.77
19208;BME280;9737;59.466;18.036;2022-07-06T01:33:43;100650.72;;;13.98;57.92
19208;BME280;9737;59.466;18.036;2022-07-06T01:36:12;100636.63;;;13.95;57.70
19208;BME280;9737;59.466;18.036;2022-07-06T01:38:45;100615.91;;;13.88;57.75
19208;BME280;9737;59.466;18.036;2022-07-06T01:41:13;100583.72;;;13.78;57.96
19208;BME280;9737;59.466;18.036;2022-07-06T01:43:42;100562.34;;;13.78;58.22
19208;BME280;9737;59.466;18.036;2022-07-06T01:46:10;100552.19;;;13.72;58.22
19208;BME280;9737;59.466;18.036;2022-07-06T01:48:39;100583.47;;;13.81;57.99
19208;BME280;9737;59.466;18.036;2022-07-06T01:51:07;100570.22;;;13.80;58.32
19208;BME280;9737;59.466;18.036;2022-07-06T01:53:36;100573.03;;;13.78;57.91
19208;BME280;9737;59.466;18.036;2022-07-06T01:56:05;100555.56;;;13.74;58.19
19208;BME280;9737;59.466;18.036;2022-07-06T01:58:33;100546.00;;;13.72;58.46
19208;BME280;9737;59.466;18.036;2022-07-06T02:01:07;100538.09;;;13.70;58.23
19208;BME280;9737;59.466;18.036;2022-07-06T02:03:35;100563.72;;;13.73;58.50
19208;BME280;9737;59.466;18.036;2022-07-06T02:06:04;100535.56;;;13.69;58.50
19208;BME280;9737;59.466;18.036;2022-07-06T02:08:32;100529.38;;;13.68;58.37
19208;BME280;9737;59.466;18.036;2022-07-06T02:11:03;100548.78;;;13.70;58.72
19208;BME280;9737;59.466;18.036;2022-07-06T02:13:31;100525.97;;;13.66;58.56
19208;BME280;9737;59.466;18.036;2022-07-06T02:15:59;100513.88;;;13.62;58.55
19208;BME280;9737;59.466;18.036;2022-07-06T02:18:28;100492.13;;;13.55;58.62
19208;BME280;9737;59.466;18.036;2022-07-06T02:20:56;100464.25;;;13.48;58.87
19208;BME280;9737;59.466;18.036;2022-07-06T02:23:24;100431.03;;;13.41;58.92
19208;BME280;9737;59.466;18.036;2022-07-06T02:25:53;100437.09;;;13.43;58.80
19208;BME280;9737;59.466;18.036;2022-07-06T02:28:23;100387.38;;;13.31;58.88
19208;BME280;9737;59.466;18.036;2022-07-06T02:30:52;100404.00;;;13.35;58.84
19208;BME280;9737;59.466;18.036;2022-07-06T02:33:20;100389.22;;;13.30;58.88
19208;BME280;9737;59.466;18.036;2022-07-06T02:35:48;100387.50;;;13.29;59.06
19208;BME280;9737;59.466;18.036;2022-07-06T02:38:16;100349.22;;;13.19;58.93
19208;BME280;9737;59.466;18.036;2022-07-06T02:40:44;100351.25;;;13.16;59.29
19208;BME280;9737;59.466;18.036;2022-07-06T02:43:12;100387.50;;;13.29;59.08
19208;BME280;9737;59.466;18.036;2022-07-06T02:45:41;100404.97;;;13.33;59.16
19208;BME280;9737;59.466;18.036;2022-07-06T02:48:10;100434.94;;;13.37;59.45
19208;BME280;9737;59.466;18.036;2022-07-06T02:50:37;100441.72;;;13.41;59.59
19208;BME280;9737;59.466;18.036;2022-07-06T02:53:06;100471.53;;;13.46;59.58
19208;BME280;9737;59.466;18.036;2022-07-06T02:55:34;100470.44;;;13.49;59.55
19208;BME280;9737;59.466;18.036;2022-07-06T02:58:02;100486.47;;;13.49;59.43
19208;BME280;9737;59.466;18.036;2022-07-06T03:00:30;100534.25;;;13.63;59.60
19208;BME280;9737;59.466;18.036;2022-07-06T03:02:59;100538.63;;;13.64;59.57
19208;BME280;9737;59.466;18.036;2022-07-06T03:05:27;100587.50;;;13.76;59.69
19208;BME280;9737;59.466;18.036;2022-07-06T03:07:55;100633.28;;;13.82;59.94
19208;BME280;9737;59.466;18.036;2022-07-06T03:10:23;100658.28;;;13.92;59.99
19208;BME280;9737;59.466;18.036;2022-07-06T03:12:51;100646.88;;;13.90;59.83
19208;BME280;9737;59.466;18.036;2022-07-06T03:15:23;100652.22;;;13.90;60.02
19208;BME280;9737;59.466;18.036;2022-07-06T03:17:51;100641.66;;;13.89;60.23
19208;BME280;9737;59.466;18.036;2022-07-06T03:20:20;100672.50;;;13.93;60.24
19208;BME280;9737;59.466;18.036;2022-07-06T03:22:49;100667.16;;;13.93;60.30
19208;BME280;9737;59.466;18.036;2022-07-06T03:25:17;100681.25;;;13.95;60.16
19208;BME280;9737;59.466;18.036;2022-07-06T03:27:45;100717.06;;;14.04;60.54
19208;BME280;9737;59.466;18.036;2022-07-06T03:30:13;100715.09;;;14.06;60.55
19208;BME280;9737;59.466;18.036;2022-07-06T03:32:41;100742.56;;;14.08;60.77
19208;BME280;9737;59.466;18.036;2022-07-06T03:35:09;100751.03;;;14.13;60.81
19208;BME280;9737;59.466;18.036;2022-07-06T03:37:39;100746.69;;;14.12;60.91
19208;BME280;9737;59.466;18.036;2022-07-06T03:40:07;100760.78;;;14.14;60.70
19208;BME280;9737;59.466;18.036;2022-07-06T03:42:35;100752.03;;;14.12;60.85
19208;BME280;9737;59.466;18.036;2022-07-06T03:45:05;100741.84;;;14.06;60.72
19208;BME280;9737;59.466;18.036;2022-07-06T03:47:33;100745.25;;;14.08;61.04
19208;BME280;9737;59.466;18.036;2022-07-06T03:50:01;100752.28;;;14.09;60.80
19208;BME280;9737;59.466;18.036;2022-07-06T03:52:29;100743.41;;;14.08;60.75
19208;BME280;9737;59.466;18.036;2022-07-06T03:54:58;100742.69;;;14.06;60.88
19208;BME280;9737;59.466;18.036;2022-07-06T03:57:27;100755.69;;;14.11;61.25
19208;BME280;9737;59.466;18.036;2022-07-06T03:59:55;100747.78;;;14.09;60.95
19208;BME280;9737;59.466;18.036;2022-07-06T04:02:23;100751.56;;;14.07;61.13
19208;BME280;9737;59.466;18.036;2022-07-06T04:04:51;100762.13;;;14.08;61.22
19208;BME280;9737;59.466;18.036;2022-07-06T04:07:19;100775.97;;;14.13;61.45
19208;BME280;9737;59.466;18.036;2022-07-06T04:09:47;100809.16;;;14.22;61.16
19208;BME280;9737;59.466;18.036;2022-07-06T04:12:16;100852.88;;;14.32;61.37
19208;BME280;9737;59.466;18.036;2022-07-06T04:14:45;100906.16;;;14.46;61.27
19208;BME280;9737;59.466;18.036;2022-07-06T04:17:13;101014.59;;;14.73;61.67
19208;BME280;9737;59.466;18.036;2022-07-06T04:19:55;101136.66;;;14.98;61.84
19208;BME280;9737;59.466;18.036;2022-07-06T04:22:23;101218.09;;;15.17;61.86
19208;BME280;9737;59.466;18.036;2022-07-06T04:24:51;101270.69;;;15.30;61.71
19208;BME280;9737;59.466;18.036;2022-07-06T04:27:20;101343.44;;;15.47;61.98
19208;BME280;9737;59.466;18.036;2022-07-06T04:29:48;101439.66;;;15.74;62.08
19208;BME280;9737;59.466;18.036;2022-07-06T04:32:16;101418.81;;;15.67;62.18
19208;BME280;9737;59.466;18.036;2022-07-06T04:34:51;101494.25;;;15.85;62.17
19208;BME280;9737;59.466;18.036;2022-07-06T04:37:19;101535.75;;;15.92;62.05
19208;BME280;9737;59.466;18.036;2022-07-06T04:39:47;101534.78;;;15.93;62.40
19208;BME280;9737;59.466;18.036;2022-07-06T04:42:15;101508.53;;;15.85;62.32
19208;BME280;9737;59.466;18.036;2022-07-06T04:44:44;101535.00;;;15.90;62.38
19208;BME280;9737;59.466;18.036;2022-07-06T04:47:13;101536.81;;;15.89;62.54
19208;BME280;9737;59.466;18.036;2022-07-06T04:49:41;101507.66;;;15.85;62.51
19208;BME280;9737;59.466;18.036;2022-07-06T04:52:09;101439.28;;;15.68;62.68
19208;BME280;9737;59.466;18.036;2022-07-06T04:54:38;101448.19;;;15.68;62.54
19208;BME280;9737;59.466;18.036;2022-07-06T04:57:06;101399.84;;;15.57;62.63
19208;BME280;9737;59.466;18.036;2022-07-06T04:59:39;101414.88;;;15.60;62.49
19208;BME280;9737;59.466;18.036;2022-07-06T05:02:08;101485.00;;;15.77;62.68
19208;BME280;9737;59.466;18.036;2022-07-06T05:04:36;101549.03;;;15.93;62.62
19208;BME280;9737;59.466;18.036;2022-07-06T05:07:04;101595.75;;;16.02;62.88
19208;BME280;9737;59.466;18.036;2022-07-06T05:09:32;101717.81;;;16.31;62.96
19208;BME280;9737;59.466;18.036;2022-07-06T05:12:01;101759.19;;;16.40;62.90
19208;BME280;9737;59.466;18.036;2022-07-06T05:14:29;101723.91;;;16.33;63.11
19208;BME280;9737;59.466;18.036;2022-07-06T05:16:57;101697.78;;;16.24;63.02
19208;BME280;9737;59.466;18.036;2022-07-06T05:19:28;101665.09;;;16.19;63.05
19208;BME280;9737;59.466;18.036;2022-07-06T05:21:56;101701.31;;;16.25;63.12
19208;BME280;9737;59.466;18.036;2022-07-06T05:24:24;101730.00;;;16.35;63.02
19208;BME280;9737;59.466;18.036;2022-07-06T05:26:52;101697.78;;;16.24;63.18
19208;BME280;9737;59.466;18.036;2022-07-06T05:29:20;101694.38;;;16.22;63.12
19208;BME280;9737;59.466;18.036;2022-07-06T05:31:48;101711.81;;;16.28;63.34
19208;BME280;9737;59.466;18.036;2022-07-06T05:34:16;101739.03;;;16.34;63.30
19208;BME280;9737;59.466;18.036;2022-07-06T05:36:46;101718.78;;;16.30;63.30
19208;BME280;9737;59.466;18.036;2022-07-06T05:39:16;101703.16;;;16.24;63.35
19208;BME280;9737;59.466;18.036;2022-07-06T05:41:46;101808.88;;;16.46;63.48
19208;BME280;9737;59.466;18.036;2022-07-06T05:44:15;101880.00;;;16.64;63.58
19208;BME280;9737;59.466;18.036;2022-07-06T05:46:43;101914.25;;;16.73;63.43
19208;BME280;9737;59.466;18.036;2022-07-06T05:49:11;101900.69;;;16.75;63.55
19208;BME280;9737;59.466;18.036;2022-07-06T05:51:57;101989.94;;;16.91;63.63
19208;BME280;9737;59.466;18.036;2022-07-06T05:54:26;102104.28;;;17.19;63.54
19208;BME280;9737;59.466;18.036;2022-07-06T05:56:55;102141.69;;;17.22;63.66
19208;BME280;9737;59.466;18.036;2022-07-06T05:59:23;102288.50;;;17.61;63.69
19208;BME280;9737;59.466;18.036;2022-07-06T06:01:51;102404.28;;;17.85;63.77
19208;BME280;9737;59.466;18.036;2022-07-06T06:04:19;102419.34;;;17.87;63.92
19208;BME280;9737;59.466;18.036;2022-07-06T06:06:47;102451.84;;;17.97;63.90
19208;BME280;9737;59.466;18.036;2022-07-06T06:09:17;102509.94;;;18.12;63.91
19208;BME280;9737;59.466;18.036;2022-07-06T06:11:44;102556.81;;;18.22;64.06
19208;BME280;9737;59.466;18.036;2022-07-06T06:14:14;102534.94;;;18.14;63.75
19208;BME280;9737;59.466;18.036;2022-07-06T06:16:42;102535.69;;;18.16;64.00
19208;BME280;9737;59.466;18.036;2022-07-06T06:19:10;102543.53;;;18.19;64.01
19208;BME280;9737;59.466;18.036;2022-07-06T06:21:38;102585.25;;;18.26;64.01
19208;BME280;9737;59.466;18.036;2022-07-06T06:24:07;102498.78;;;18.06;63.95
19208;BME280;9737;59.466;18.036;2022-07-06T06:26:36;102452.72;;;17.98;64.02
19208;BME280;9737;59.466;18.036;2022-07-06T06:29:04;102522.44;;;18.13;64.10
19208;BME280;9737;59.466;18.036;2022-07-06T06:31:32;102578.25;;;18.24;63.86
19208;BME280;9737;59.466;18.036;2022-07-06T06:34:07;102661.38;;;18.41;64.29
19208;BME280;9737;59.466;18.036;2022-07-06T06:36:35;102557.97;;;18.18;64.22
19208;BME280;9737;59.466;18.036;2022-07-06T06:39:03;102561.41;;;18.20;64.26
19208;BME280;9737;59.466;18.036;2022-07-06T06:41:31;102603.00;;;18.29;64.14
19208;BME280;9737;59.466;18.036;2022-07-06T06:44:03;102620.66;;;18.33;64.21
19208;BME280;9737;59.466;18.036;2022-07-06T06:46:31;102762.94;;;18.66;64.02
19208;BME280;9737;59.466;18.036;2022-07-06T06:48:59;102915.94;;;19.01;64.17
19208;BME280;9737;59.466;18.036;2022-07-06T06:51:28;103017.06;;;19.21;64.40
19208;BME280;9737;59.466;18.036;2022-07-06T06:53:56;103077.00;;;19.38;64.32
19208;BME280;9737;59.466;18.036;2022-07-06T06:56:24;103008.88;;;19.22;64.41
19208;BME280;9737;59.466;18.036;2022-07-06T06:58:52;102877.13;;;18.91;64.45
19208;BME280;9737;59.466;18.036;2022-07-06T07:01:41;102846.94;;;18.85;64.17
19208;BME280;9737;59.466;18.036;2022-07-06T07:04:09;102776.53;;;18.65;64.17
19208;BME280;9737;59.466;18.036;2022-07-06T07:06:39;102697.56;;;18.50;64.18
19208;BME280;9737;59.466;18.036;2022-07-06T07:09:07;102613.66;;;18.31;64.22
19208;BME280;9737;59.466;18.036;2022-07-06T07:11:35;102542.25;;;18.12;64.33
19208;BME280;9737;59.466;18.036;2022-07-06T07:14:03;102454.22;;;17.89;64.10
19208;BME280;9737;59.466;18.036;2022-07-06T07:16:31;102439.78;;;17.90;64.12
19208;BME280;9737;59.466;18.036;2022-07-06T07:19:01;102457.47;;;17.94;64.10
19208;BME280;9737;59.466;18.036;2022-07-06T07:21:29;102465.53;;;17.94;64.08
19208;BME280;9737;59.466;18.036;2022-07-06T07:24:00;102522.88;;;18.07;64.15
19208;BME280;9737;59.466;18.036;2022-07-06T07:26:36;102625.19;;;18.33;64.28
19208;BME280;9737;59.466;18.036;2022-07-06T07:29:04;102679.16;;;18.44;64.35
19208;BME280;9737;59.466;18.036;2022-07-06T07:31:32;102721.41;;;18.56;64.07
19208;BME280;9737;59.466;18.036;2022-07-06T07:34:01;102732.94;;;18.58;64.21
19208;BME280;9737;59.466;18.036;2022-07-06T07:36:29;102735.41;;;18.61;64.27
19208;BME280;9737;59.466;18.036;2022-07-06T07:38:57;102811.75;;;18.74;64.14
19208;BME280;9737;59.466;18.036;2022-07-06T07:41:29;102921.34;;;19.01;64.37
19208;BME280;9737;59.466;18.036;2022-07-06T07:43:57;102964.75;;;19.10;64.33
19208;BME280;9737;59.466;18.036;2022-07-06T07:46:28;102880.69;;;18.91;64.33
19208;BME280;9737;59.466;18.036;2022-07-06T07:49:06;102746.97;;;18.50;64.39
19208;BME280;9737;59.466;18.036;2022-07-06T07:51:37;102779.75;;;18.70;64.45
19208;BME280;9737;59.466;18.036;2022-07-06T07:54:05;102830.22;;;18.80;64.26
19208;BME280;9737;59.466;18.036;2022-07-06T07:56:33;102861.50;;;18.83;64.21
19208;BME280;9737;59.466;18.036;2022-07-06T07:59:01;102944.31;;;19.06;64.26
19208;BME280;9737;59.466;18.036;2022-07-06T08:01:36;103019.88;;;19.19;64.25
19208;BME280;9737;59.466;18.036;2022-07-06T08:04:06;103129.59;;;19.45;64.30
19208;BME280;9737;59.466;18.036;2022-07-06T08:06:38;103125.25;;;19.43;64.18
19208;BME280;9737;59.466;18.036;2022-07-06T08:09:09;103183.94;;;19.54;64.46
19208;BME280;9737;59.466;18.036;2022-07-06T08:11:46;103248.44;;;19.71;64.26
19208;BME280;9737;59.466;18.036;2022-07-06T08:14:21;103270.25;;;19.68;64.19
19208;BME280;9737;59.466;18.036;2022-07-06T08:16:50;103127.59;;;19.35;64.16
19208;BME280;9737;59.466;18.036;2022-07-06T08:19:21;103211.25;;;19.62;64.28
19208;BME280;9737;59.466;18.036;2022-07-06T08:21:52;103282.16;;;19.78;64.14
19208;BME280;9737;59.466;18.036;2022-07-06T08:24:21;103307.00;;;19.83;64.16
19208;BME280;9737;59.466;18.036;2022-07-06T08:26:49;103340.34;;;19.96;64.20
19208;BME280;9737;59.466;18.036;2022-07-06T08:29:17;103405.22;;;20.09;64.15
19208;BME280;9737;59.466;18.036;2022-07-06T08:31:45;103466.63;;;20.20;64.16
19208;BME280;9737;59.466;18.036;2022-07-06T08:34:25;103599.59;;;20.53;64.26
19208;BME280;9737;59.466;18.036;2022-07-06T08:36:59;103633.19;;;20.63;64.22
19208;BME280;9737;59.466;18.036;2022-07-06T08:39:27;103688.38;;;20.73;64.17
19208;BME280;9737;59.466;18.036;2022-07-06T08:41:56;103750.78;;;20.85;64.01
19208;BME280;9737;59.466;18.036;2022-07-06T08:44:27;103849.38;;;21.08;64.24
19208;BME280;9737;59.466;18.036;2022-07-06T08:46:57;103967.16;;;21.29;64.02
19208;BME280;9737;59.466;18.036;2022-07-06T08:49:29;104055.25;;;21.49;64.02
19208;BME280;9737;59.466;18.036;2022-07-06T08:51:58;104103.91;;;21.64;64.15
19208;BME280;9737;59.466;18.036;2022-07-06T08:54:28;104159.75;;;21.81;64.09
19208;BME280;9737;59.466;18.036;2022-07-06T08:56:58;104033.50;;;21.50;64.07
19208;BME280;9737;59.466;18.036;2022-07-06T08:59:28;103955.66;;;21.25;63.84
19208;BME280;9737;59.466;18.036;2022-07-06T09:01:59;103975.47;;;21.40;63.87
19208;BME280;9737;59.466;18.036;2022-07-06T09:04:29;103952.56;;;21.31;63.93
19208;BME280;9737;59.466;18.036;2022-07-06T09:07:03;103969.28;;;21.38;64.09
19208;BME280;9737;59.466;18.036;2022-07-06T09:09:33;103900.34;;;21.15;63.87
19208;BME280;9737;59.466;18.036;2022-07-06T09:12:02;103922.97;;;21.28;63.64
19208;BME280;9737;59.466;18.036;2022-07-06T09:14:30;104017.34;;;21.49;63.57
19208;BME280;9737;59.466;18.036;2022-07-06T09:17:02;104004.00;;;21.46;63.69
19208;BME280;9737;59.466;18.036;2022-07-06T09:19:34;104219.56;;;21.92;63.50
19208;BME280;9737;59.466;18.036;2022-07-06T09:22:03;104410.22;;;22.37;63.75
19208;BME280;9737;59.466;18.036;2022-07-06T09:24:32;104619.19;;;22.81;63.69
19208;BME280;9737;59.466;18.036;2022-07-06T09:27:00;104765.38;;;23.19;63.38
19208;BME280;9737;59.466;18.036;2022-07-06T09:29:31;104829.13;;;23.28;63.67
19208;BME280;9737;59.466;18.036;2022-07-06T09:32:06;104583.25;;;22.76;63.52
19208;BME280;9737;59.466;18.036;2022-07-06T09:34:46;104634.25;;;22.87;63.31
19208;BME280;9737;59.466;18.036;2022-07-06T09:37:15;104774.66;;;23.15;63.51
19208;BME280;9737;59.466;18.036;2022-07-06T09:39:57;104965.16;;;23.56;63.29
19208;BME280;9737;59.466;18.036;2022-07-06T09:42:40;105302.69;;;24.30;63.22
19208;BME280;9737;59.466;18.036;2022-07-06T09:45:09;105261.47;;;24.21;63.04
19208;BME280;9737;59.466;18.036;2022-07-06T09:47:37;105041.78;;;23.78;63.14
19208;BME280;9737;59.466;18.036;2022-07-06T09:50:08;104820.00;;;23.29;62.92
19208;BME280;9737;59.466;18.036;2022-07-06T09:52:36;105064.22;;;23.82;63.10
19208;BME280;9737;59.466;18.036;2022-07-06T09:55:08;105433.22;;;24.65;62.84
19208;BME280;9737;59.466;18.036;2022-07-06T09:57:52;105946.97;;;25.74;62.90
19208;BME280;9737;59.466;18.036;2022-07-06T10:00:21;105955.94;;;25.76;62.60
19208;BME280;9737;59.466;18.036;2022-07-06T10:02:51;105994.53;;;25.86;62.59
19208;BME280;9737;59.466;18.036;2022-07-06T10:05:23;106341.25;;;26.57;62.32
19208;BME280;9737;59.466;18.036;2022-07-06T10:07:58;106781.38;;;27.51;62.76
19208;BME280;9737;59.466;18.036;2022-07-06T10:10:29;107225.69;;;28.34;62.37
19208;BME280;9737;59.466;18.036;2022-07-06T10:12:59;107175.81;;;28.26;62.27
19208;BME280;9737;59.466;18.036;2022-07-06T10:15:29;107125.13;;;28.16;62.21
19208;BME280;9737;59.466;18.036;2022-07-06T10:17:59;107075.00;;;28.14;61.85
19208;BME280;9737;59.466;18.036;2022-07-06T10:20:31;106924.94;;;27.83;62.38
19208;BME280;9737;59.466;18.036;2022-07-06T10:23:01;106929.31;;;27.87;61.90
19208;BME280;9737;59.466;18.036;2022-07-06T10:25:32;107020.69;;;28.03;61.95
19208;BME280;9737;59.466;18.036;2022-07-06T10:28:02;107136.34;;;28.30;61.74
19208;BME280;9737;59.466;18.036;2022-07-06T10:30:38;106801.03;;;27.59;61.46
19208;BME280;9737;59.466;18.036;2022-07-06T10:33:06;106092.53;;;26.08;61.80
19208;BME280;9737;59.466;18.036;2022-07-06T10:35:39;105397.34;;;24.57;61.50
19208;BME280;9737;59.466;18.036;2022-07-06T10:38:30;104847.41;;;23.40;61.23
19208;BME280;9737;59.466;18.036;2022-07-06T10:41:12;104561.31;;;22.81;61.06
19208;BME280;9737;59.466;18.036;2022-07-06T10:43:46;104346.88;;;22.38;60.79
19208;BME280;9737;59.466;18.036;2022-07-06T10:46:27;104146.19;;;21.95;60.42
19208;BME280;9737;59.466;18.036;2022-07-06T10:49:15;103996.34;;;21.52;60.37
19208;BME280;9737;59.466;18.036;2022-07-06T10:52:24;103954.84;;;21.52;60.14
19208;BME280;9737;59.466;18.036;2022-07-06T10:55:27;103920.72;;;21.49;60.19
19208;BME280;9737;59.466;18.036;2022-07-06T10:57:56;103941.09;;;21.55;59.92
19208;BME280;9737;59.466;18.036;2022-07-06T11:00:25;103953.47;;;21.59;59.69
19208;BME280;9737;59.466;18.036;2022-07-06T11:02:53;104337.38;;;22.45;59.71
19208;BME280;9737;59.466;18.036;2022-07-06T11:05:40;105225.59;;;24.46;59.79
19208;BME280;9737;59.466;18.036;2022-07-06T11:09:00;106197.44;;;26.55;59.62
19208;BME280;9737;59.466;18.036;2022-07-06T11:11:38;107064.97;;;28.33;59.64
19208;BME280;9737;59.466;18.036;2022-07-06T11:14:35;107579.16;;;29.43;59.66
19208;BME280;9737;59.466;18.036;2022-07-06T11:17:09;107680.03;;;29.60;59.68
19208;BME280;9737;59.466;18.036;2022-07-06T11:19:48;107286.56;;;28.81;59.66
19208;BME280;9737;59.466;18.036;2022-07-06T11:22:17;106720.66;;;27.61;59.28
19208;BME280;9737;59.466;18.036;2022-07-06T11:24:51;106241.84;;;26.59;59.28
19208;BME280;9737;59.466;18.036;2022-07-06T11:27:22;105757.84;;;25.56;59.45
19208;BME280;9737;59.466;18.036;2022-07-06T11:29:50;105431.66;;;24.92;59.13
19208;BME280;9737;59.466;18.036;2022-07-06T11:32:23;105089.34;;;24.17;58.92
19208;BME280;9737;59.466;18.036;2022-07-06T11:34:53;104820.13;;;23.57;58.94
19208;BME280;9737;59.466;18.036;2022-07-06T11:37:21;105338.06;;;24.78;58.42
19208;BME280;9737;59.466;18.036;2022-07-06T11:39:51;106183.84;;;26.54;58.39
19208;BME280;9737;59.466;18.036;2022-07-06T11:42:19;106898.97;;;28.10;58.18
19208;BME280;9737;59.466;18.036;2022-07-06T11:44:47;107398.75;;;29.08;58.65
19208;BME280;9737;59.466;18.036;2022-07-06T11:47:16;108036.47;;;30.42;58.37
19208;BME280;9737;59.466;18.036;2022-07-06T11:49:51;107981.88;;;30.33;58.64
19208;BME280;9737;59.466;18.036;2022-07-06T11:52:19;107797.78;;;29.89;58.27
19208;BME280;9737;59.466;18.036;2022-07-06T11:54:57;108178.13;;;30.76;57.99
19208;BME280;9737;59.466;18.036;2022-07-06T11:57:29;108191.06;;;30.74;57.97
19208;BME280;9737;59.466;18.036;2022-07-06T12:00:00;107793.72;;;29.98;57.99
19208;BME280;9737;59.466;18.036;2022-07-06T12:02:29;107674.06;;;29.71;57.93
19208;BME280;9737;59.466;18.036;2022-07-06T12:04:57;108236.47;;;30.84;57.70
19208;BME280;9737;59.466;18.036;2022-07-06T12:07:28;108625.19;;;31.65;57.34
19208;BME280;9737;59.466;18.036;2022-07-06T12:09:57;108909.09;;;32.15;57.53
19208;BME280;9737;59.466;18.036;2022-07-06T12:12:26;108990.75;;;32.46;57.25
19208;BME280;9737;59.466;18.036;2022-07-06T12:14:54;108560.38;;;31.55;57.28
19208;BME280;9737;59.466;18.036;2022-07-06T12:17:22;108205.00;;;30.91;57.05
19208;BME280;9737;59.466;18.036;2022-07-06T12:19:53;107784.19;;;30.07;57.24
19208;BME280;9737;59.466;18.036;2022-07-06T12:22:25;107607.69;;;29.61;56.81
19208;BME280;9737;59.466;18.036;2022-07-06T12:24:53;107603.63;;;29.70;56.57
19208;BME280;9737;59.466;18.036;2022-07-06T12:27:23;107593.41;;;29.73;56.62
19208;BME280;9737;59.466;18.036;2022-07-06T12:29:51;107147.25;;;28.71;56.40
19208;BME280;9737;59.466;18.036;2022-07-06T12:32:20;106895.25;;;28.30;56.41
19208;BME280;9737;59.466;18.036;2022-07-06T12:35:02;106667.53;;;27.84;55.85
19208;BME280;9737;59.466;18.036;2022-07-06T12:37:31;106166.34;;;26.75;55.91
19208;BME280;9737;59.466;18.036;2022-07-06T12:39:59;105853.06;;;26.11;55.50
19208;BME280;9737;59.466;18.036;2022-07-06T12:42:29;105652.13;;;25.61;55.36
19208;BME280;9737;59.466;18.036;2022-07-06T12:44:58;105766.75;;;25.93;55.49
19208;BME280;9737;59.466;18.036;2022-07-06T12:47:26;106131.78;;;26.74;55.33
19208;BME280;9737;59.466;18.036;2022-07-06T12:50:05;106161.16;;;26.86;55.33
19208;BME280;9737;59.466;18.036;2022-07-06T12:52:34;106290.09;;;27.12;55.05
19208;BME280;9737;59.466;18.036;2022-07-06T12:55:03;106780.97;;;28.15;54.91
19208;BME280;9737;59.466;18.036;2022-07-06T12:57:44;107740.75;;;30.16;54.75
19208;BME280;9737;59.466;18.036;2022-07-06T13:00:15;108154.91;;;31.05;54.85
19208;BME280;9737;59.466;18.036;2022-07-06T13:02:45;108303.06;;;31.39;54.80
19208;BME280;9737;59.466;18.036;2022-07-06T13:05:35;108427.69;;;31.66;54.41
19208;BME280;9737;59.466;18.036;2022-07-06T13:08:06;108609.97;;;32.02;54.67